Hemlock Grove, Ohio
Current Conditions -  °F | °C
As of 1:10 AM on Wednesday 28 Jan 2015 (Local Time) from KUNI Reporting Station
Overcast Overcast  
Wind Chill: 15°   Ceiling: 2300
Heat Index: 15°   Visibility: 10mi
Dew Point: 11°   Wind: 3mph
Humidity: 85%   Direction: 260°W
Pressure: 30.23"   Gusts: NA
Location:  39.1049°N, 82.0431°W
Report Text: KUNI 280610Z AUTO 26003KT 10SM OVC023 M09/M12 A3023 RMK AO2 T10951116
Loading
Personal Weather Stations






























Interactive Weather Map New forecast layout! Learn more

10-Day Weather Forecast

Advertisements
Track Severe Weather on mobile